Time;durP1;ratioP1;P1;durP2;ratioP2;P2;SDS_P1;SDS_P2;PMS_P1;PMS_P2;Temp;Humidity;BMP_temperature;BMP_pressure;BME280_temperature;BME280_humidity;BME280_pressure;Samples;Min_cycle;Max_cycle;Signal;HPM_P1;HPM_P2
2022/04/21 00:00:08;;;;;;;0.40;0.40;;;;;;;;;;5094857;28;20486;-79
2022/04/21 00:02:34;;;;;;;0.22;0.22;;;;;;;;;;5096141;28;20074;-80
2022/04/21 00:05:01;;;;;;;0.77;0.65;;;;;;;;;;5103665;28;20020;-81
2022/04/21 00:07:28;;;;;;;2.25;2.15;;;;;;;;;;5108616;28;20035;-79
2022/04/21 00:09:54;;;;;;;2.40;2.25;;;;;;;;;;5078338;28;20062;-80
2022/04/21 00:12:21;;;;;;;0.22;0.22;;;;;;;;;;5074729;28;20032;-81
2022/04/21 00:14:47;;;;;;;0.63;0.63;;;;;;;;;;5100278;28;20111;-79
2022/04/21 00:17:14;;;;;;;18.60;17.65;;;;;;;;;;5075438;28;20423;-79
2022/04/21 00:19:40;;;;;;;0.00;0.00;;;;;;;;;;5093661;28;20119;-80
2022/04/21 00:24:52;;;;;;;0.00;0.00;;;;;;;;;;5094742;28;20401;-80
2022/04/21 00:27:18;;;;;;;0.00;0.00;;;;;;;;;;5079301;28;20119;-79
2022/04/21 00:29:44;;;;;;;0.10;0.10;;;;;;;;;;5086031;28;20030;-79
2022/04/21 00:32:11;;;;;;;0.00;0.00;;;;;;;;;;5106690;28;20095;-80
2022/04/21 00:34:37;;;;;;;2.28;2.17;;;;;;;;;;5105340;28;20020;-79
2022/04/21 00:37:04;;;;;;;0.28;0.28;;;;;;;;;;5104018;28;20024;-80
2022/04/21 00:39:33;;;;;;;0.00;0.00;;;;;;;;;;5103423;28;20406;-79
2022/04/21 00:42:00;;;;;;;3.58;0.70;;;;;;;;;;5106755;28;20026;-80
2022/04/21 00:44:27;;;;;;;0.43;0.43;;;;;;;;;;5100063;28;20455;-80
2022/04/21 00:46:55;;;;;;;0.40;0.30;;;;;;;;;;5099039;28;20056;-80
2022/04/21 00:49:21;;;;;;;5.45;2.63;;;;;;;;;;5104578;28;20027;-80
2022/04/21 00:51:51;;;;;;;0.10;0.10;;;;;;;;;;5100587;28;20039;-79
2022/04/21 00:54:18;;;;;;;0.52;0.52;;;;;;;;;;5096916;28;20024;-81
2022/04/21 00:56:45;;;;;;;0.65;0.65;;;;;;;;;;5103768;28;20016;-80
2022/04/21 00:59:12;;;;;;;0.00;0.00;;;;;;;;;;5099253;28;20457;-80
2022/04/21 01:04:26;;;;;;;0.00;0.00;;;;;;;;;;5099110;28;20085;-80
2022/04/21 01:06:53;;;;;;;0.98;0.98;;;;;;;;;;5103733;28;20708;-79
2022/04/21 01:09:19;;;;;;;0.68;0.35;;;;;;;;;;5102033;28;20028;-79
2022/04/21 01:11:46;;;;;;;7.28;5.57;;;;;;;;;;5103792;28;20071;-80
2022/04/21 01:14:14;;;;;;;9.13;8.77;;;;;;;;;;5076610;28;20062;-80
2022/04/21 01:16:40;;;;;;;0.20;0.20;;;;;;;;;;5079619;28;20103;-79
2022/04/21 01:19:06;;;;;;;11.40;10.85;;;;;;;;;;5081753;28;20020;-81
2022/04/21 01:21:35;;;;;;;0.65;0.65;;;;;;;;;;5079485;28;20028;-79
2022/04/21 01:24:01;;;;;;;2.92;2.72;;;;;;;;;;5083634;28;20029;-79
2022/04/21 01:26:29;;;;;;;1.65;1.55;;;;;;;;;;5077486;28;20033;-81
2022/04/21 01:28:55;;;;;;;0.10;0.10;;;;;;;;;;5082482;28;20026;-79
2022/04/21 01:31:22;;;;;;;0.00;0.00;;;;;;;;;;5081478;28;20108;-79
2022/04/21 01:33:49;;;;;;;0.52;0.52;;;;;;;;;;5079302;28;20024;-81
2022/04/21 01:36:16;;;;;;;6.68;6.32;;;;;;;;;;5079492;28;20108;-80
2022/04/21 01:41:27;;;;;;;0.00;0.00;;;;;;;;;;5078398;28;20038;-80
2022/04/21 01:43:53;;;;;;;1.45;1.35;;;;;;;;;;5076594;28;20031;-80
2022/04/21 01:46:20;;;;;;;0.00;0.00;;;;;;;;;;5092419;28;20375;-78
2022/04/21 01:48:46;;;;;;;0.00;0.00;;;;;;;;;;5083199;28;20129;-81
2022/04/21 01:51:12;;;;;;;1.08;1.08;;;;;;;;;;5083241;28;20024;-79
2022/04/21 01:53:39;;;;;;;0.00;0.00;;;;;;;;;;5086065;28;20028;-80
2022/04/21 01:56:05;;;;;;;0.25;0.25;;;;;;;;;;5090464;28;20266;-80
2022/04/21 01:58:34;;;;;;;0.40;0.40;;;;;;;;;;5101839;28;20024;-80
2022/04/21 02:01:01;;;;;;;0.00;0.00;;;;;;;;;;5087700;28;20024;-81
2022/04/21 02:03:28;;;;;;;0.85;0.85;;;;;;;;;;5081358;28;20020;-80
2022/04/21 02:05:54;;;;;;;0.00;0.00;;;;;;;;;;5083968;28;20031;-80
2022/04/21 02:08:20;;;;;;;2.13;1.95;;;;;;;;;;5082138;28;20020;-80
2022/04/21 02:10:47;;;;;;;0.10;0.10;;;;;;;;;;5086874;28;20096;-81
2022/04/21 02:13:13;;;;;;;4.10;3.92;;;;;;;;;;5089924;28;20024;-80
2022/04/21 02:15:40;;;;;;;7.30;6.82;;;;;;;;;;5082495;28;20059;-81
2022/04/21 02:18:06;;;;;;;0.28;0.28;;;;;;;;;;5084062;28;20435;-81
2022/04/21 02:20:32;;;;;;;2.38;2.17;;;;;;;;;;5088092;28;20020;-80
2022/04/21 02:22:59;;;;;;;1.73;1.63;;;;;;;;;;5085594;28;20087;-81
2022/04/21 02:25:25;;;;;;;0.25;0.25;;;;;;;;;;5084839;28;20028;-82
2022/04/21 02:27:51;;;;;;;7.80;7.32;;;;;;;;;;5083190;28;20029;-81
2022/04/21 02:30:19;;;;;;;0.90;0.90;;;;;;;;;;5078716;28;20030;-82
2022/04/21 02:32:45;;;;;;;0.10;0.10;;;;;;;;;;5080411;28;20459;-81
2022/04/21 02:35:14;;;;;;;0.00;0.00;;;;;;;;;;5081636;28;20039;-79
2022/04/21 02:37:41;;;;;;;0.00;0.00;;;;;;;;;;5078498;28;20470;-81
2022/04/21 02:40:09;;;;;;;0.00;0.00;;;;;;;;;;5082286;28;20117;-81
2022/04/21 02:42:38;;;;;;;0.00;0.00;;;;;;;;;;5084563;28;20419;-81
2022/04/21 02:45:05;;;;;;;0.00;0.00;;;;;;;;;;5083028;28;20028;-81
2022/04/21 02:47:34;;;;;;;0.10;0.10;;;;;;;;;;5078385;28;20040;-81
2022/04/21 02:50:00;;;;;;;1.45;1.35;;;;;;;;;;5082324;28;20024;-81
2022/04/21 02:52:27;;;;;;;4.38;2.67;;;;;;;;;;5079031;28;20016;-81
2022/04/21 02:57:38;;;;;;;0.00;0.00;;;;;;;;;;5078969;28;21007;-81
2022/04/21 03:00:09;;;;;;;2.75;1.08;;;;;;;;;;5080956;28;20028;-80
2022/04/21 03:02:35;;;;;;;0.15;0.15;;;;;;;;;;5078371;28;20031;-79
2022/04/21 03:05:02;;;;;;;0.00;0.00;;;;;;;;;;5083122;28;20031;-80
2022/04/21 03:07:31;;;;;;;1.75;1.75;;;;;;;;;;5083826;28;20108;-80
2022/04/21 03:09:58;;;;;;;0.10;0.10;;;;;;;;;;5091044;28;20092;-80
2022/04/21 03:12:28;;;;;;;0.35;0.35;;;;;;;;;;5086133;28;20028;-80
2022/04/21 03:14:55;;;;;;;4.75;2.58;;;;;;;;;;5063283;28;20045;-81
2022/04/21 03:17:29;;;;;;;2.40;2.22;;;;;;;;;;5067286;28;20028;-80
2022/04/21 03:19:58;;;;;;;2.80;0.77;;;;;;;;;;5046129;28;20040;-79
2022/04/21 03:25:10;;;;;;;1.92;1.83;;;;;;;;;;5062659;28;20125;-78
2022/04/21 03:27:36;;;;;;;10.38;5.72;;;;;;;;;;5059758;28;20033;-80
2022/04/21 03:30:08;;;;;;;0.98;0.98;;;;;;;;;;5060257;28;20024;-78
2022/04/21 03:32:35;;;;;;;0.68;0.50;;;;;;;;;;5047122;28;20107;-79
2022/04/21 03:35:01;;;;;;;1.88;1.77;;;;;;;;;;5059842;28;20464;-79
2022/04/21 03:37:33;;;;;;;0.00;0.00;;;;;;;;;;5045008;28;20056;-78
2022/04/21 03:40:01;;;;;;;0.32;0.32;;;;;;;;;;5038523;28;20032;-79
2022/04/21 03:42:31;;;;;;;13.40;3.03;;;;;;;;;;5066365;28;20051;-80
2022/04/21 03:44:59;;;;;;;15.30;10.15;;;;;;;;;;5041949;28;20400;-79
2022/04/21 03:47:25;;;;;;;12.73;4.72;;;;;;;;;;5054748;28;20024;-80
2022/04/21 03:49:51;;;;;;;7.55;5.03;;;;;;;;;;5051395;28;20087;-79
2022/04/21 03:52:25;;;;;;;0.57;0.55;;;;;;;;;;5058789;28;20021;-80
2022/04/21 03:54:52;;;;;;;6.30;3.55;;;;;;;;;;5054535;28;20024;-80
2022/04/21 03:57:18;;;;;;;0.20;0.20;;;;;;;;;;5055099;28;20036;-81
2022/04/21 03:59:47;;;;;;;7.13;3.00;;;;;;;;;;5046229;28;20388;-81
2022/04/21 04:02:13;;;;;;;22.25;11.52;;;;;;;;;;5038438;28;20143;-80
2022/04/21 04:04:40;;;;;;;7.70;6.47;;;;;;;;;;5060059;28;20021;-80
2022/04/21 04:12:37;;;;;;;2.95;2.75;;;;;;;;;;5061570;28;20059;-80
2022/04/21 04:15:05;;;;;;;1.65;1.23;;;;;;;;;;5050914;28;20127;-80
2022/04/21 04:17:31;;;;;;;5.53;5.05;;;;;;;;;;5036471;28;20029;-80
2022/04/21 04:19:58;;;;;;;4.85;4.53;;;;;;;;;;5032972;28;20091;-80
2022/04/21 04:22:24;;;;;;;3.80;3.25;;;;;;;;;;5033343;28;20083;-80
2022/04/21 04:24:53;;;;;;;13.68;9.38;;;;;;;;;;5041674;28;20037;-80
2022/04/21 04:27:29;;;;;;;12.02;6.90;;;;;;;;;;5056101;28;20028;-80
2022/04/21 04:29:58;;;;;;;0.00;0.00;;;;;;;;;;5036542;28;20532;-78
2022/04/21 04:32:24;;;;;;;3.10;2.88;;;;;;;;;;5036176;28;20047;-79
2022/04/21 04:34:51;;;;;;;5.80;4.47;;;;;;;;;;5052003;28;20501;-79
2022/04/21 04:37:17;;;;;;;22.20;10.68;;;;;;;;;;5053690;28;20024;-79
2022/04/21 04:39:44;;;;;;;7.07;4.05;;;;;;;;;;5036806;28;20083;-78
2022/04/21 04:42:16;;;;;;;12.45;8.75;;;;;;;;;;5051076;28;20024;-80
2022/04/21 04:44:46;;;;;;;8.93;7.10;;;;;;;;;;5055282;28;20482;-79
2022/04/21 04:47:12;;;;;;;12.30;8.02;;;;;;;;;;5052728;28;20036;-79
2022/04/21 04:49:57;;;;;;;11.00;7.65;;;;;;;;;;5035870;28;20108;-80
2022/04/21 04:53:05;;;;;;;14.30;8.38;;;;;;;;;;5052279;28;20364;-80
2022/04/21 04:55:32;;;;;;;8.60;4.32;;;;;;;;;;5027610;28;20033;-79
2022/04/21 04:58:01;;;;;;;14.40;8.23;;;;;;;;;;5051906;28;20055;-78
2022/04/21 05:00:30;;;;;;;23.00;11.27;;;;;;;;;;5046629;28;20057;-79
2022/04/21 05:03:12;;;;;;;9.00;3.58;;;;;;;;;;5052176;28;20643;-80
2022/04/21 05:05:44;;;;;;;18.52;10.20;;;;;;;;;;5038475;28;20128;-80
2022/04/21 05:08:13;;;;;;;5.88;3.20;;;;;;;;;;5052905;28;20027;-78
2022/04/21 05:10:40;;;;;;;9.35;6.90;;;;;;;;;;5032625;28;20071;-78
2022/04/21 05:13:07;;;;;;;12.88;9.20;;;;;;;;;;5043003;28;20057;-80
2022/04/21 05:15:34;;;;;;;3.35;1.20;;;;;;;;;;5051843;28;20044;-80
2022/04/21 05:18:01;;;;;;;12.68;8.77;;;;;;;;;;5086777;28;20047;-80
2022/04/21 05:20:27;;;;;;;11.80;3.75;;;;;;;;;;5082106;28;20032;-80
2022/04/21 05:23:01;;;;;;;5.05;3.70;;;;;;;;;;5078447;28;20423;-79
2022/04/21 05:25:31;;;;;;;26.98;15.63;;;;;;;;;;5095673;28;20046;-80
2022/04/21 05:27:58;;;;;;;54.30;7.93;;;;;;;;;;5091340;28;20484;-79
2022/04/21 05:33:15;;;;;;;15.48;9.38;;;;;;;;;;5112711;28;20057;-80
2022/04/21 05:35:42;;;;;;;9.45;8.23;;;;;;;;;;5100269;28;20085;-79
2022/04/21 05:38:08;;;;;;;21.30;14.82;;;;;;;;;;5082109;28;20031;-81
2022/04/21 05:40:35;;;;;;;2.92;1.85;;;;;;;;;;5083826;28;20141;-79
2022/04/21 05:43:06;;;;;;;24.10;14.50;;;;;;;;;;5078980;28;20032;-79
2022/04/21 05:45:33;;;;;;;17.80;10.35;;;;;;;;;;5097991;28;20448;-80
2022/04/21 05:48:02;;;;;;;16.20;9.98;;;;;;;;;;5099122;28;20023;-80
2022/04/21 05:50:36;;;;;;;21.08;11.25;;;;;;;;;;5081015;28;20023;-80
2022/04/21 05:53:03;;;;;;;6.78;4.68;;;;;;;;;;5083660;28;20386;-81
2022/04/21 05:55:30;;;;;;;25.27;13.93;;;;;;;;;;5094567;28;20042;-81
2022/04/21 05:57:59;;;;;;;13.00;8.07;;;;;;;;;;5095455;28;20028;-81
2022/04/21 06:00:26;;;;;;;32.42;18.02;;;;;;;;;;5093393;28;20024;-80
2022/04/21 06:02:55;;;;;;;14.20;8.77;;;;;;;;;;5095930;28;20027;-80
2022/04/21 06:05:22;;;;;;;26.30;8.77;;;;;;;;;;5076902;28;20492;-81
2022/04/21 06:07:48;;;;;;;14.38;8.52;;;;;;;;;;5087808;28;20043;-81
2022/04/21 06:10:14;;;;;;;23.08;11.32;;;;;;;;;;5095996;28;20032;-81
2022/04/21 06:12:42;;;;;;;21.73;14.07;;;;;;;;;;5097053;28;20027;-80
2022/04/21 06:15:08;;;;;;;21.10;7.85;;;;;;;;;;5081476;28;20044;-80
2022/04/21 06:17:34;;;;;;;15.40;6.60;;;;;;;;;;5087311;28;20124;-80
2022/04/21 06:20:01;;;;;;;15.15;11.73;;;;;;;;;;5083706;28;20045;-80
2022/04/21 06:22:30;;;;;;;19.02;11.80;;;;;;;;;;5102391;28;20024;-81
2022/04/21 06:24:57;;;;;;;0.63;0.57;;;;;;;;;;5083796;28;20028;-81
2022/04/21 06:27:32;;;;;;;13.60;10.20;;;;;;;;;;5083074;28;20556;-81
2022/04/21 06:29:59;;;;;;;12.15;9.23;;;;;;;;;;5097304;28;20122;-81
2022/04/21 06:32:25;;;;;;;8.95;5.88;;;;;;;;;;5090061;28;20119;-80
2022/04/21 06:37:47;;;;;;;33.08;17.58;;;;;;;;;;5092710;28;20024;-80
2022/04/21 06:40:14;;;;;;;2.72;0.75;;;;;;;;;;5079502;28;20066;-80
2022/04/21 06:42:58;;;;;;;26.45;9.35;;;;;;;;;;5092227;28;20115;-81
2022/04/21 06:48:20;;;;;;;20.05;13.13;;;;;;;;;;5099407;28;20035;-80
2022/04/21 06:50:55;;;;;;;8.57;7.45;;;;;;;;;;5075461;28;20085;-81
2022/04/21 06:53:47;;;;;;;11.80;3.13;;;;;;;;;;5083179;28;20044;-82
2022/04/21 06:56:25;;;;;;;1.88;1.75;;;;;;;;;;5079352;28;20032;-82
2022/04/21 06:59:12;;;;;;;4.85;2.88;;;;;;;;;;5095351;28;20066;-82
2022/04/21 07:01:41;;;;;;;1.95;1.65;;;;;;;;;;5084853;28;20035;-83
2022/04/21 07:04:11;;;;;;;8.73;7.85;;;;;;;;;;5079001;28;20119;-82
2022/04/21 07:06:55;;;;;;;7.38;4.50;;;;;;;;;;5077041;28;20020;-81
2022/04/21 07:09:31;;;;;;;1.20;1.15;;;;;;;;;;5074473;28;20036;-80
2022/04/21 07:12:00;;;;;;;13.70;7.68;;;;;;;;;;5073515;28;20280;-80
2022/04/21 07:14:36;;;;;;;15.88;9.48;;;;;;;;;;5075129;28;20055;-80
2022/04/21 07:17:05;;;;;;;3.67;3.38;;;;;;;;;;5094454;28;20539;-81
2022/04/21 07:19:34;;;;;;;4.45;2.58;;;;;;;;;;5069636;28;20619;-81
2022/04/21 07:22:11;;;;;;;;;;;;;;;;;;;;;
2022/04/21 07:24:52;;;;;;;0.10;0.10;;;;;;;;;;5096019;28;20352;-82
2022/04/21 07:27:28;;;;;;;;;;;;;;;;;;;;;
2022/04/21 07:30:06;;;;;;;1.33;1.27;;;;;;;;;;5089872;28;20027;-81
2022/04/21 07:32:53;;;;;;;8.20;5.72;;;;;;;;;;5072642;28;20035;-82
2022/04/21 07:38:38;;;;;;;0.00;0.00;;;;;;;;;;5071917;28;20067;-81
2022/04/21 07:41:10;;;;;;;0.95;0.95;;;;;;;;;;5092130;28;20528;-81
2022/04/21 07:43:42;;;;;;;11.57;2.05;;;;;;;;;;5083734;28;20039;-79
2022/04/21 07:46:09;;;;;;;3.70;2.38;;;;;;;;;;5085146;28;20028;-78
2022/04/21 07:51:21;;;;;;;0.00;0.00;;;;;;;;;;5093867;28;20071;-79
2022/04/21 07:53:47;;;;;;;20.67;9.68;;;;;;;;;;5084118;28;20027;-78
2022/04/21 07:56:21;;;;;;;0.32;0.32;;;;;;;;;;5105827;28;20066;-80
2022/04/21 07:58:51;;;;;;;0.25;0.25;;;;;;;;;;5093499;28;20032;-80
2022/04/21 08:01:20;;;;;;;12.57;9.15;;;;;;;;;;5101133;28;20032;-80
2022/04/21 08:04:27;;;;;;;3.70;2.95;;;;;;;;;;5075737;28;20048;-79
2022/04/21 08:06:49;;;;;;;4.35;3.97;;;;;;;;;;5100514;28;20036;-80
2022/04/21 08:09:18;;;;;;;2.13;2.03;;;;;;;;;;5084912;28;20470;-80
2022/04/21 08:11:48;;;;;;;3.90;2.03;;;;;;;;;;5083564;28;20031;-80
2022/04/21 08:14:16;;;;;;;23.55;6.82;;;;;;;;;;5089388;28;20122;-79
2022/04/21 08:16:43;;;;;;;0.20;0.20;;;;;;;;;;5075836;28;20019;-79
2022/04/21 08:19:10;;;;;;;4.05;2.20;;;;;;;;;;5092077;28;20034;-79
2022/04/21 08:21:47;;;;;;;28.52;14.30;;;;;;;;;;5093610;28;20457;-78
2022/04/21 08:32:43;;;;;;;13.60;9.00;;;;;;;;;;5095457;28;20105;-81
2022/04/21 08:35:13;;;;;;;0.85;0.85;;;;;;;;;;5084717;28;20050;-79
2022/04/21 08:37:45;;;;;;;0.80;0.80;;;;;;;;;;5067706;28;20036;-80
2022/04/21 08:40:12;;;;;;;0.65;0.65;;;;;;;;;;5095117;28;20035;-80
2022/04/21 08:42:40;;;;;;;18.70;8.68;;;;;;;;;;5100238;28;20034;-80
2022/04/21 08:45:10;;;;;;;1.63;1.27;;;;;;;;;;5096245;28;20036;-80
2022/04/21 08:47:46;;;;;;;2.92;2.72;;;;;;;;;;5097044;28;20113;-79
2022/04/21 08:50:14;;;;;;;1.52;1.42;;;;;;;;;;5077250;28;20424;-80
2022/04/21 08:52:44;;;;;;;4.47;4.07;;;;;;;;;;5093659;28;20032;-81
2022/04/21 08:55:10;;;;;;;2.08;1.75;;;;;;;;;;5091315;28;20505;-81
2022/04/21 08:57:38;;;;;;;0.95;0.40;;;;;;;;;;5100177;28;20020;-79
2022/04/21 09:00:06;;;;;;;10.85;4.47;;;;;;;;;;5092184;28;21569;-79
2022/04/21 09:02:48;;;;;;;6.40;4.93;;;;;;;;;;5097736;28;20032;-81
2022/04/21 09:05:14;;;;;;;2.92;1.52;;;;;;;;;;5078706;28;20391;-80
2022/04/21 09:07:45;;;;;;;0.00;0.00;;;;;;;;;;5097307;28;20378;-80
2022/04/21 09:10:12;;;;;;;3.10;2.05;;;;;;;;;;5100717;28;20024;-79
2022/04/21 09:12:46;;;;;;;0.00;0.00;;;;;;;;;;5100351;28;20351;-79
2022/04/21 09:15:14;;;;;;;1.23;1.13;;;;;;;;;;5095819;28;20039;-81
2022/04/21 09:17:44;;;;;;;0.98;0.88;;;;;;;;;;5101361;28;20032;-83
2022/04/21 09:20:20;;;;;;;0.00;0.00;;;;;;;;;;5097264;28;20348;-80
2022/04/21 09:22:54;;;;;;;5.10;3.03;;;;;;;;;;5102776;28;20027;-80
2022/04/21 09:25:25;;;;;;;3.78;3.55;;;;;;;;;;5083253;28;20041;-79
2022/04/21 09:27:52;;;;;;;0.73;0.73;;;;;;;;;;5076116;28;20020;-79
2022/04/21 09:30:19;;;;;;;2.75;2.65;;;;;;;;;;5096803;28;20081;-79
2022/04/21 09:32:53;;;;;;;5.63;5.18;;;;;;;;;;5081756;28;20434;-79
2022/04/21 09:35:23;;;;;;;0.00;0.00;;;;;;;;;;5100804;28;20031;-79
2022/04/21 09:37:50;;;;;;;0.90;0.90;;;;;;;;;;5100866;28;20039;-81
2022/04/21 09:40:18;;;;;;;0.60;0.60;;;;;;;;;;5084782;28;20425;-80
2022/04/21 09:42:44;;;;;;;1.00;0.80;;;;;;;;;;5092784;28;20122;-79
2022/04/21 09:47:56;;;;;;;4.22;3.30;;;;;;;;;;5097666;28;20042;-81
2022/04/21 09:50:25;;;;;;;0.00;0.00;;;;;;;;;;5102709;28;20157;-78
2022/04/21 09:52:52;;;;;;;0.00;0.00;;;;;;;;;;5101905;28;20020;-79
2022/04/21 09:55:26;;;;;;;2.40;0.90;;;;;;;;;;5100153;28;20023;-79
2022/04/21 09:58:00;;;;;;;2.33;1.92;;;;;;;;;;5084447;28;20055;-79
2022/04/21 10:00:29;;;;;;;1.85;1.42;;;;;;;;;;5096569;28;20039;-80
2022/04/21 10:03:05;;;;;;;0.90;0.63;;;;;;;;;;5078733;28;20446;-80
2022/04/21 10:05:54;;;;;;;0.57;0.57;;;;;;;;;;5084819;28;20035;-78
2022/04/21 10:08:21;;;;;;;3.03;0.35;;;;;;;;;;5094429;28;20028;-79
2022/04/21 10:11:16;;;;;;;1.60;1.50;;;;;;;;;;5080248;28;20051;-80
2022/04/21 10:13:47;;;;;;;0.22;0.20;;;;;;;;;;5099076;28;20382;-79
2022/04/21 10:16:16;;;;;;;0.17;0.17;;;;;;;;;;5100152;28;20479;-81
2022/04/21 10:19:03;;;;;;;2.33;2.00;;;;;;;;;;5097955;28;20486;-80
2022/04/21 10:21:48;;;;;;;;;;;;;;;;;;;;;
2022/04/21 10:24:43;;;;;;;1.08;0.70;;;;;;;;;;5102695;28;20068;-80
2022/04/21 10:27:28;;;;;;;0.70;0.70;;;;;;;;;;5104432;28;20032;-80
2022/04/21 10:30:19;;;;;;;2.95;1.80;;;;;;;;;;5078207;28;20044;-80
2022/04/21 10:33:03;;;;;;;1.15;0.28;;;;;;;;;;5098444;28;20558;-80
2022/04/21 10:39:10;;;;;;;0.00;0.00;;;;;;;;;;5104407;28;20035;-80
2022/04/21 10:41:51;;;;;;;2.35;1.55;;;;;;;;;;5087549;28;20040;-80
2022/04/21 10:44:27;;;;;;;3.50;3.30;;;;;;;;;;5115374;28;20036;-79
2022/04/21 10:47:14;;;;;;;3.58;1.58;;;;;;;;;;5075513;28;20025;-82
2022/04/21 10:50:00;;;;;;;0.40;0.40;;;;;;;;;;5078646;28;20032;-80
2022/04/21 11:00:43;;;;;;;;;;;;;;;;;;;;;
2022/04/21 11:03:15;;;;;;;0.03;0.03;;;;;;;;;;5096918;28;20032;-78
2022/04/21 11:05:41;;;;;;;1.30;1.30;;;;;;;;;;5079597;28;20032;-80
2022/04/21 11:08:14;;;;;;;0.00;0.00;;;;;;;;;;5095777;28;20522;-79
2022/04/21 11:10:44;;;;;;;0.10;0.10;;;;;;;;;;5081593;28;20122;-80
2022/04/21 11:13:21;;;;;;;1.48;1.38;;;;;;;;;;5077283;28;20024;-80
2022/04/21 11:15:50;;;;;;;0.00;0.00;;;;;;;;;;5076055;28;20074;-79
2022/04/21 11:18:35;;;;;;;0.00;0.00;;;;;;;;;;5072382;28;20364;-79
2022/04/21 11:21:45;;;;;;;2.63;0.47;;;;;;;;;;5074951;28;20031;-80
2022/04/21 11:24:14;;;;;;;3.55;3.35;;;;;;;;;;5013794;28;20025;-80
2022/04/21 11:26:42;;;;;;;1.08;0.80;;;;;;;;;;5064322;28;20166;-80
2022/04/21 11:29:22;;;;;;;0.80;0.52;;;;;;;;;;5076655;28;20024;-80
2022/04/21 11:31:59;;;;;;;0.35;0.35;;;;;;;;;;5061524;28;20020;-80
2022/04/21 11:34:26;;;;;;;0.25;0.03;;;;;;;;;;5098435;28;20020;-80
2022/04/21 11:36:53;;;;;;;0.00;0.00;;;;;;;;;;5079984;28;20513;-79
2022/04/21 11:39:20;;;;;;;2.55;2.33;;;;;;;;;;5081579;28;20036;-82
2022/04/21 11:41:49;;;;;;;7.20;4.35;;;;;;;;;;5078691;28;20763;-79
2022/04/21 11:44:26;;;;;;;1.10;0.85;;;;;;;;;;5076157;28;20356;-79
2022/04/21 11:46:53;;;;;;;0.00;0.00;;;;;;;;;;5077085;28;20025;-80
2022/04/21 11:49:20;;;;;;;2.83;2.67;;;;;;;;;;5079801;28;20073;-79
2022/04/21 11:51:55;;;;;;;0.95;0.95;;;;;;;;;;5079787;28;20063;-80
2022/04/21 11:54:24;;;;;;;0.65;0.65;;;;;;;;;;5075683;28;20024;-79
2022/04/21 11:56:51;;;;;;;3.63;1.20;;;;;;;;;;5077177;28;20100;-81
2022/04/21 11:59:17;;;;;;;0.10;0.10;;;;;;;;;;5068170;28;20032;-79
2022/04/21 12:07:17;;;;;;;0.35;0.22;;;;;;;;;;5080524;28;20047;-79
2022/04/21 12:09:46;;;;;;;0.82;0.80;;;;;;;;;;5075155;28;20465;-79
2022/04/21 12:12:13;;;;;;;0.00;0.00;;;;;;;;;;5076334;28;20043;-79
2022/04/21 12:14:43;;;;;;;0.00;0.00;;;;;;;;;;5072644;28;20082;-79
2022/04/21 12:17:10;;;;;;;0.00;0.00;;;;;;;;;;5094877;28;20035;-79
2022/04/21 12:19:38;;;;;;;0.50;0.50;;;;;;;;;;5078803;28;20463;-79
2022/04/21 12:22:12;;;;;;;0.00;0.00;;;;;;;;;;5075467;28;20071;-80
2022/04/21 12:24:40;;;;;;;0.93;0.17;;;;;;;;;;5079562;28;20024;-79
2022/04/21 12:27:18;;;;;;;0.00;0.00;;;;;;;;;;5081033;28;20427;-79
2022/04/21 12:29:49;;;;;;;0.20;0.20;;;;;;;;;;5076551;28;20039;-79
2022/04/21 12:32:28;;;;;;;0.00;0.00;;;;;;;;;;5076229;28;20077;-79
2022/04/21 12:34:55;;;;;;;0.15;0.15;;;;;;;;;;5081202;28;20051;-81
2022/04/21 12:37:25;;;;;;;0.30;0.30;;;;;;;;;;5079917;28;20024;-80
2022/04/21 12:39:55;;;;;;;0.35;0.35;;;;;;;;;;5084863;28;20031;-78
2022/04/21 12:42:21;;;;;;;0.38;0.28;;;;;;;;;;5083953;28;20032;-80
2022/04/21 12:44:50;;;;;;;0.82;0.82;;;;;;;;;;5085076;28;20508;-78
2022/04/21 12:47:18;;;;;;;1.75;0.85;;;;;;;;;;5079068;28;20384;-79
2022/04/21 12:49:53;;;;;;;0.60;0.43;;;;;;;;;;5082497;28;20021;-79
2022/04/21 12:52:33;;;;;;;23.25;2.53;;;;;;;;;;5078229;28;20415;-81
2022/04/21 12:55:02;;;;;;;0.10;0.10;;;;;;;;;;5086147;28;20024;-79
2022/04/21 12:57:29;;;;;;;0.20;0.10;;;;;;;;;;5089594;28;20563;-79
2022/04/21 12:59:58;;;;;;;0.57;0.43;;;;;;;;;;5085290;28;20435;-77
2022/04/21 13:02:28;;;;;;;16.00;7.38;;;;;;;;;;5087225;28;20063;-80
2022/04/21 13:04:57;;;;;;;1.08;1.08;;;;;;;;;;5078721;28;20020;-79
2022/04/21 13:07:27;;;;;;;0.20;0.20;;;;;;;;;;5085675;28;20090;-79
2022/04/21 13:09:57;;;;;;;0.00;0.00;;;;;;;;;;5085806;28;20032;-79
2022/04/21 13:12:24;;;;;;;0.00;0.00;;;;;;;;;;5091862;28;20030;-79
2022/04/21 13:14:50;;;;;;;0.00;0.00;;;;;;;;;;5090936;28;20426;-80
2022/04/21 13:17:17;;;;;;;0.00;0.00;;;;;;;;;;5075849;28;20111;-79
2022/04/21 13:19:43;;;;;;;0.75;0.75;;;;;;;;;;5085117;28;20028;-79
2022/04/21 13:22:09;;;;;;;4.05;3.72;;;;;;;;;;5076004;28;20474;-79
2022/04/21 13:24:36;;;;;;;0.00;0.00;;;;;;;;;;5079287;28;20039;-79
2022/04/21 13:27:02;;;;;;;0.00;0.00;;;;;;;;;;5081579;28;20028;-79
2022/04/21 13:29:29;;;;;;;0.00;0.00;;;;;;;;;;5072477;28;20033;-79
2022/04/21 13:34:42;;;;;;;1.90;1.80;;;;;;;;;;5086123;28;20082;-79
2022/04/21 13:37:09;;;;;;;0.00;0.00;;;;;;;;;;5085181;28;20027;-80
2022/04/21 13:39:36;;;;;;;0.00;0.00;;;;;;;;;;5079490;28;20032;-80
2022/04/21 13:42:04;;;;;;;0.10;0.10;;;;;;;;;;5082368;28;20025;-80
2022/04/21 13:44:30;;;;;;;0.00;0.00;;;;;;;;;;5085147;28;20028;-80
2022/04/21 13:46:57;;;;;;;0.00;0.00;;;;;;;;;;5093217;28;20027;-80
2022/04/21 13:49:24;;;;;;;0.00;0.00;;;;;;;;;;5105599;28;20036;-79
2022/04/21 13:51:51;;;;;;;0.47;0.47;;;;;;;;;;5096677;28;20028;-79
2022/04/21 13:54:18;;;;;;;0.00;0.00;;;;;;;;;;5091250;28;20042;-79
2022/04/21 13:56:47;;;;;;;0.55;0.55;;;;;;;;;;5093505;28;20027;-78
2022/04/21 13:59:13;;;;;;;0.00;0.00;;;;;;;;;;5094157;28;20032;-79
2022/04/21 14:01:41;;;;;;;0.00;0.00;;;;;;;;;;5092439;28;20089;-78
2022/04/21 14:04:13;;;;;;;0.20;0.20;;;;;;;;;;5079662;28;20020;-79
2022/04/21 14:06:39;;;;;;;0.10;0.10;;;;;;;;;;5092568;28;20085;-78
2022/04/21 14:09:07;;;;;;;0.00;0.00;;;;;;;;;;5075243;28;20463;-79
2022/04/21 14:11:34;;;;;;;0.00;0.00;;;;;;;;;;5075012;28;20442;-78
2022/04/21 14:14:01;;;;;;;0.65;0.63;;;;;;;;;;5085209;28;20472;-79
2022/04/21 14:16:30;;;;;;;14.95;14.30;;;;;;;;;;5090110;28;20028;-80
2022/04/21 14:18:57;;;;;;;0.00;0.00;;;;;;;;;;5091886;28;20501;-79
2022/04/21 14:21:29;;;;;;;0.25;0.25;;;;;;;;;;5083843;28;20506;-78
2022/04/21 14:23:58;;;;;;;0.00;0.00;;;;;;;;;;5080620;28;20025;-78
2022/04/21 14:26:27;;;;;;;0.10;0.10;;;;;;;;;;5090987;28;20090;-79
2022/04/21 14:28:53;;;;;;;0.00;0.00;;;;;;;;;;5086867;28;20529;-79
2022/04/21 14:31:20;;;;;;;1.75;1.65;;;;;;;;;;5064702;28;20029;-79
2022/04/21 14:33:53;;;;;;;3.95;3.30;;;;;;;;;;5097660;28;20032;-78
2022/04/21 14:36:20;;;;;;;0.28;0.28;;;;;;;;;;5075536;28;20044;-82
2022/04/21 14:44:16;;;;;;;0.00;0.00;;;;;;;;;;5085624;28;20031;-80
2022/04/21 14:46:44;;;;;;;0.00;0.00;;;;;;;;;;5084710;28;20412;-80
2022/04/21 14:49:11;;;;;;;0.00;0.00;;;;;;;;;;5081505;28;20028;-79
2022/04/21 14:51:38;;;;;;;0.38;0.38;;;;;;;;;;5083852;28;20024;-79
2022/04/21 14:54:05;;;;;;;0.00;0.00;;;;;;;;;;5089299;28;20233;-78
2022/04/21 14:56:37;;;;;;;0.45;0.45;;;;;;;;;;5084095;28;20027;-78
2022/04/21 14:59:04;;;;;;;0.15;0.15;;;;;;;;;;5086138;28;20032;-80
2022/04/21 15:01:33;;;;;;;1.55;1.55;;;;;;;;;;5083594;28;20024;-80
2022/04/21 15:03:59;;;;;;;1.23;1.23;;;;;;;;;;5083016;28;20391;-80
2022/04/21 15:06:26;;;;;;;0.00;0.00;;;;;;;;;;5081727;28;20031;-80
2022/04/21 15:08:54;;;;;;;0.00;0.00;;;;;;;;;;5083119;28;20437;-80
2022/04/21 15:11:24;;;;;;;0.00;0.00;;;;;;;;;;5076543;28;20382;-79
2022/04/21 15:14:31;;;;;;;0.10;0.10;;;;;;;;;;5080813;28;20063;-78
2022/04/21 15:16:58;;;;;;;3.67;3.50;;;;;;;;;;5097582;28;20047;-80
2022/04/21 15:19:24;;;;;;;0.00;0.00;;;;;;;;;;5081730;28;20463;-78
2022/04/21 15:21:53;;;;;;;0.00;0.00;;;;;;;;;;5102787;28;20028;-80
2022/04/21 15:24:27;;;;;;;0.00;0.00;;;;;;;;;;5084859;28;20110;-81
2022/04/21 15:27:00;;;;;;;1.25;1.25;;;;;;;;;;5085660;28;20115;-79
2022/04/21 15:29:26;;;;;;;0.00;0.00;;;;;;;;;;5105554;28;20020;-79
2022/04/21 15:31:57;;;;;;;0.00;0.00;;;;;;;;;;5103699;28;20039;-80
2022/04/21 15:34:25;;;;;;;0.00;0.00;;;;;;;;;;5083328;28;20055;-80
2022/04/21 15:36:52;;;;;;;3.60;3.33;;;;;;;;;;5102795;28;20046;-79
2022/04/21 15:39:21;;;;;;;0.00;0.00;;;;;;;;;;5100206;28;20031;-79
2022/04/21 15:41:48;;;;;;;0.00;0.00;;;;;;;;;;5082399;28;20042;-81
2022/04/21 15:44:14;;;;;;;0.00;0.00;;;;;;;;;;5079577;28;20414;-78
2022/04/21 15:46:40;;;;;;;1.25;1.25;;;;;;;;;;5082357;28;20028;-80
2022/04/21 15:49:09;;;;;;;0.00;0.00;;;;;;;;;;5104929;28;20091;-79
2022/04/21 15:51:37;;;;;;;0.10;0.10;;;;;;;;;;5086410;28;20111;-79
2022/04/21 15:59:34;;;;;;;0.00;0.00;;;;;;;;;;5108539;28;20038;-79
2022/04/21 16:02:00;;;;;;;0.45;0.45;;;;;;;;;;5084235;28;20059;-79
2022/04/21 16:04:26;;;;;;;0.20;0.20;;;;;;;;;;5099050;28;20111;-80
2022/04/21 16:06:53;;;;;;;1.25;1.25;;;;;;;;;;5105521;28;20023;-77
2022/04/21 16:09:19;;;;;;;0.00;0.00;;;;;;;;;;5081738;28;20035;-80
2022/04/21 16:11:51;;;;;;;1.20;1.10;;;;;;;;;;5105621;28;20098;-79
2022/04/21 16:14:21;;;;;;;0.00;0.00;;;;;;;;;;5074826;28;20109;-79